Capitol Logistics 7446

Operating for MZN



KBWI
Baltimore/Washington International Thurgood Marshall Airport
Baltimore, Maryland
KONT
Ontario International Airport
Ontario, California

Activity Log

Date Flight Route Aircraft Duration
No Flights Yet

Route Details

Aircraft Information
Primary: Boeing 767-300BDSF
Backup: Boeing 757-200SF
Route Data
Distance: 2281nm
Duration: 5h 12m
Recm'd Route: TERPZ7 OTTTO Q80 FAREV BWG Q68 LITTR TXK BYP UKW HNKER CNX J74 SJN J231 DRK DAFNY SCBBY2
Origin Wx: KBWI 142042Z 19003KT 5SM -RA BR FEW008 BKN012 OVC050 15/13 A2995 RMK AO2 P0001 T01500128
Dest. Wx: KONT 141953Z COR 23005KT 10SM FEW028 BKN036 BKN200 17/07 A2998 RMK AO2 SLP147 T01670067
Notes: